sensor_id;sensor_type;location;lat;lon;timestamp;P1;durP1;ratioP1;P2;durP2;ratioP2
69310;SDS011;56430;48.154;16.458;2022-12-11T00:01:20;29.15;;;9.57;;
69310;SDS011;56430;48.154;16.458;2022-12-11T00:03:47;30.13;;;11.15;;
69310;SDS011;56430;48.154;16.458;2022-12-11T00:06:17;29.30;;;9.10;;
69310;SDS011;56430;48.154;16.458;2022-12-11T00:08:46;25.08;;;8.75;;
69310;SDS011;56430;48.154;16.458;2022-12-11T00:11:14;26.85;;;8.95;;
69310;SDS011;56430;48.154;16.458;2022-12-11T00:13:42;27.77;;;10.50;;
69310;SDS011;56430;48.154;16.458;2022-12-11T00:16:10;28.00;;;9.13;;
69310;SDS011;56430;48.154;16.458;2022-12-11T00:18:37;29.57;;;11.03;;
69310;SDS011;56430;48.154;16.458;2022-12-11T00:21:06;27.20;;;8.60;;
69310;SDS011;56430;48.154;16.458;2022-12-11T00:23:35;27.67;;;11.00;;
69310;SDS011;56430;48.154;16.458;2022-12-11T00:26:03;26.80;;;9.43;;
69310;SDS011;56430;48.154;16.458;2022-12-11T00:28:31;29.33;;;9.88;;
69310;SDS011;56430;48.154;16.458;2022-12-11T00:31:01;29.50;;;9.73;;
69310;SDS011;56430;48.154;16.458;2022-12-11T00:33:29;31.35;;;10.38;;
69310;SDS011;56430;48.154;16.458;2022-12-11T00:35:56;26.67;;;8.93;;
69310;SDS011;56430;48.154;16.458;2022-12-11T00:38:24;25.13;;;9.55;;
69310;SDS011;56430;48.154;16.458;2022-12-11T00:40:56;23.23;;;9.50;;
69310;SDS011;56430;48.154;16.458;2022-12-11T00:43:24;28.07;;;9.30;;
69310;SDS011;56430;48.154;16.458;2022-12-11T00:45:51;21.25;;;7.95;;
69310;SDS011;56430;48.154;16.458;2022-12-11T00:48:18;26.60;;;9.55;;
69310;SDS011;56430;48.154;16.458;2022-12-11T00:50:45;21.58;;;7.53;;
69310;SDS011;56430;48.154;16.458;2022-12-11T00:53:12;25.98;;;9.63;;
69310;SDS011;56430;48.154;16.458;2022-12-11T00:55:40;23.73;;;8.53;;
69310;SDS011;56430;48.154;16.458;2022-12-11T00:58:10;22.30;;;8.68;;
69310;SDS011;56430;48.154;16.458;2022-12-11T01:00:38;28.38;;;9.38;;
69310;SDS011;56430;48.154;16.458;2022-12-11T01:03:06;22.58;;;8.18;;
69310;SDS011;56430;48.154;16.458;2022-12-11T01:05:33;20.70;;;7.13;;
69310;SDS011;56430;48.154;16.458;2022-12-11T01:08:00;22.03;;;7.90;;
69310;SDS011;56430;48.154;16.458;2022-12-11T01:10:28;23.20;;;8.82;;
69310;SDS011;56430;48.154;16.458;2022-12-11T01:12:55;24.63;;;8.30;;
69310;SDS011;56430;48.154;16.458;2022-12-11T01:15:25;24.63;;;8.88;;
69310;SDS011;56430;48.154;16.458;2022-12-11T01:17:53;21.13;;;7.75;;
69310;SDS011;56430;48.154;16.458;2022-12-11T01:20:21;26.40;;;9.20;;
69310;SDS011;56430;48.154;16.458;2022-12-11T01:22:50;18.00;;;6.72;;
69310;SDS011;56430;48.154;16.458;2022-12-11T01:25:18;24.27;;;8.45;;
69310;SDS011;56430;48.154;16.458;2022-12-11T01:27:45;19.98;;;6.25;;
69310;SDS011;56430;48.154;16.458;2022-12-11T01:30:12;17.50;;;5.90;;
69310;SDS011;56430;48.154;16.458;2022-12-11T01:32:59;22.53;;;8.07;;
69310;SDS011;56430;48.154;16.458;2022-12-11T01:38:31;21.58;;;6.90;;
69310;SDS011;56430;48.154;16.458;2022-12-11T01:40:58;19.50;;;7.32;;
69310;SDS011;56430;48.154;16.458;2022-12-11T01:43:26;18.60;;;7.20;;
69310;SDS011;56430;48.154;16.458;2022-12-11T01:45:54;20.30;;;7.97;;
69310;SDS011;56430;48.154;16.458;2022-12-11T01:48:23;23.80;;;7.55;;
69310;SDS011;56430;48.154;16.458;2022-12-11T01:50:53;22.55;;;8.25;;
69310;SDS011;56430;48.154;16.458;2022-12-11T01:53:22;23.70;;;7.50;;
69310;SDS011;56430;48.154;16.458;2022-12-11T01:55:52;26.38;;;8.38;;
69310;SDS011;56430;48.154;16.458;2022-12-11T01:58:21;25.23;;;8.50;;
69310;SDS011;56430;48.154;16.458;2022-12-11T02:00:50;22.13;;;7.38;;
69310;SDS011;56430;48.154;16.458;2022-12-11T02:03:17;25.17;;;8.15;;
69310;SDS011;56430;48.154;16.458;2022-12-11T02:05:46;25.73;;;7.72;;
69310;SDS011;56430;48.154;16.458;2022-12-11T02:08:13;28.13;;;8.40;;
69310;SDS011;56430;48.154;16.458;2022-12-11T02:10:43;20.30;;;7.13;;
69310;SDS011;56430;48.154;16.458;2022-12-11T02:13:17;24.45;;;7.93;;
69310;SDS011;56430;48.154;16.458;2022-12-11T02:15:49;19.77;;;6.85;;
69310;SDS011;56430;48.154;16.458;2022-12-11T02:18:21;20.25;;;7.78;;
69310;SDS011;56430;48.154;16.458;2022-12-11T02:20:57;26.25;;;6.95;;
69310;SDS011;56430;48.154;16.458;2022-12-11T02:26:43;22.13;;;8.20;;
69310;SDS011;56430;48.154;16.458;2022-12-11T02:29:27;16.48;;;5.95;;
69310;SDS011;56430;48.154;16.458;2022-12-11T02:31:57;16.20;;;6.53;;
69310;SDS011;56430;48.154;16.458;2022-12-11T02:34:29;25.70;;;8.43;;
69310;SDS011;56430;48.154;16.458;2022-12-11T02:36:59;20.90;;;6.10;;
69310;SDS011;56430;48.154;16.458;2022-12-11T02:39:29;23.17;;;7.72;;
69310;SDS011;56430;48.154;16.458;2022-12-11T02:41:58;22.23;;;8.55;;
69310;SDS011;56430;48.154;16.458;2022-12-11T02:44:28;20.27;;;7.32;;
69310;SDS011;56430;48.154;16.458;2022-12-11T02:46:56;20.73;;;6.70;;
69310;SDS011;56430;48.154;16.458;2022-12-11T02:49:24;21.10;;;7.10;;
69310;SDS011;56430;48.154;16.458;2022-12-11T02:51:52;21.88;;;7.85;;
69310;SDS011;56430;48.154;16.458;2022-12-11T02:54:22;22.27;;;7.25;;
69310;SDS011;56430;48.154;16.458;2022-12-11T02:56:52;20.42;;;6.75;;
69310;SDS011;56430;48.154;16.458;2022-12-11T02:59:25;24.55;;;8.13;;
69310;SDS011;56430;48.154;16.458;2022-12-11T03:01:54;18.73;;;7.70;;
69310;SDS011;56430;48.154;16.458;2022-12-11T03:04:22;20.50;;;6.95;;
69310;SDS011;56430;48.154;16.458;2022-12-11T03:06:50;18.83;;;7.47;;
69310;SDS011;56430;48.154;16.458;2022-12-11T03:09:19;20.23;;;7.22;;
69310;SDS011;56430;48.154;16.458;2022-12-11T03:11:47;19.85;;;7.38;;
69310;SDS011;56430;48.154;16.458;2022-12-11T03:14:14;20.30;;;6.57;;
69310;SDS011;56430;48.154;16.458;2022-12-11T03:16:47;19.00;;;6.07;;
69310;SDS011;56430;48.154;16.458;2022-12-11T03:19:20;18.98;;;7.13;;
69310;SDS011;56430;48.154;16.458;2022-12-11T03:21:51;18.35;;;6.28;;
69310;SDS011;56430;48.154;16.458;2022-12-11T03:24:20;17.02;;;6.13;;
69310;SDS011;56430;48.154;16.458;2022-12-11T03:26:51;22.87;;;7.53;;
69310;SDS011;56430;48.154;16.458;2022-12-11T03:29:20;13.27;;;4.95;;
69310;SDS011;56430;48.154;16.458;2022-12-11T03:31:51;19.95;;;6.07;;
69310;SDS011;56430;48.154;16.458;2022-12-11T03:34:22;19.35;;;6.18;;
69310;SDS011;56430;48.154;16.458;2022-12-11T03:36:53;19.73;;;6.60;;
69310;SDS011;56430;48.154;16.458;2022-12-11T03:39:23;18.73;;;6.90;;
69310;SDS011;56430;48.154;16.458;2022-12-11T03:41:52;12.48;;;5.00;;
69310;SDS011;56430;48.154;16.458;2022-12-11T03:44:21;13.43;;;4.93;;
69310;SDS011;56430;48.154;16.458;2022-12-11T03:46:51;16.33;;;6.10;;
69310;SDS011;56430;48.154;16.458;2022-12-11T03:49:20;15.98;;;6.28;;
69310;SDS011;56430;48.154;16.458;2022-12-11T03:51:49;15.90;;;6.47;;
69310;SDS011;56430;48.154;16.458;2022-12-11T03:54:17;18.10;;;7.13;;
69310;SDS011;56430;48.154;16.458;2022-12-11T03:56:45;17.92;;;5.28;;
69310;SDS011;56430;48.154;16.458;2022-12-11T03:59:16;14.80;;;4.78;;
69310;SDS011;56430;48.154;16.458;2022-12-11T04:01:43;17.92;;;5.70;;
69310;SDS011;56430;48.154;16.458;2022-12-11T04:04:12;18.07;;;6.60;;
69310;SDS011;56430;48.154;16.458;2022-12-11T04:06:39;17.65;;;6.03;;
69310;SDS011;56430;48.154;16.458;2022-12-11T04:09:07;17.08;;;5.97;;
69310;SDS011;56430;48.154;16.458;2022-12-11T04:11:34;13.93;;;5.50;;
69310;SDS011;56430;48.154;16.458;2022-12-11T04:14:01;18.63;;;6.60;;
69310;SDS011;56430;48.154;16.458;2022-12-11T04:16:47;14.87;;;5.60;;
69310;SDS011;56430;48.154;16.458;2022-12-11T04:19:15;15.98;;;5.18;;
69310;SDS011;56430;48.154;16.458;2022-12-11T04:22:00;17.85;;;7.07;;
69310;SDS011;56430;48.154;16.458;2022-12-11T04:24:46;17.67;;;6.20;;
69310;SDS011;56430;48.154;16.458;2022-12-11T04:27:13;15.50;;;5.70;;
69310;SDS011;56430;48.154;16.458;2022-12-11T04:30:02;16.70;;;6.37;;
69310;SDS011;56430;48.154;16.458;2022-12-11T04:32:30;13.07;;;5.40;;
69310;SDS011;56430;48.154;16.458;2022-12-11T04:34:58;18.00;;;6.55;;
69310;SDS011;56430;48.154;16.458;2022-12-11T04:37:26;15.65;;;5.45;;
69310;SDS011;56430;48.154;16.458;2022-12-11T04:39:53;16.38;;;5.93;;
69310;SDS011;56430;48.154;16.458;2022-12-11T04:42:22;15.60;;;6.17;;
69310;SDS011;56430;48.154;16.458;2022-12-11T04:44:50;21.40;;;7.20;;
69310;SDS011;56430;48.154;16.458;2022-12-11T04:47:17;16.17;;;6.50;;
69310;SDS011;56430;48.154;16.458;2022-12-11T04:49:44;18.48;;;6.55;;
69310;SDS011;56430;48.154;16.458;2022-12-11T04:52:13;16.35;;;6.53;;
69310;SDS011;56430;48.154;16.458;2022-12-11T04:54:40;17.13;;;6.67;;
69310;SDS011;56430;48.154;16.458;2022-12-11T04:57:07;16.20;;;6.15;;
69310;SDS011;56430;48.154;16.458;2022-12-11T04:59:35;19.10;;;6.28;;
69310;SDS011;56430;48.154;16.458;2022-12-11T05:02:02;17.52;;;6.25;;
69310;SDS011;56430;48.154;16.458;2022-12-11T05:04:30;19.10;;;7.47;;
69310;SDS011;56430;48.154;16.458;2022-12-11T05:06:57;13.87;;;5.40;;
69310;SDS011;56430;48.154;16.458;2022-12-11T05:09:28;19.33;;;6.78;;
69310;SDS011;56430;48.154;16.458;2022-12-11T05:11:58;18.23;;;6.50;;
69310;SDS011;56430;48.154;16.458;2022-12-11T05:14:25;21.15;;;7.00;;
69310;SDS011;56430;48.154;16.458;2022-12-11T05:16:57;19.85;;;7.07;;
69310;SDS011;56430;48.154;16.458;2022-12-11T05:19:24;23.50;;;7.47;;
69310;SDS011;56430;48.154;16.458;2022-12-11T05:21:51;17.65;;;6.70;;
69310;SDS011;56430;48.154;16.458;2022-12-11T05:24:18;17.55;;;6.85;;
69310;SDS011;56430;48.154;16.458;2022-12-11T05:26:47;17.25;;;6.60;;
69310;SDS011;56430;48.154;16.458;2022-12-11T05:29:14;18.35;;;6.70;;
69310;SDS011;56430;48.154;16.458;2022-12-11T05:31:41;17.50;;;6.80;;
69310;SDS011;56430;48.154;16.458;2022-12-11T05:34:09;21.08;;;6.38;;
69310;SDS011;56430;48.154;16.458;2022-12-11T05:36:36;16.92;;;6.55;;
69310;SDS011;56430;48.154;16.458;2022-12-11T05:39:03;15.35;;;5.97;;
69310;SDS011;56430;48.154;16.458;2022-12-11T05:41:31;19.52;;;6.90;;
69310;SDS011;56430;48.154;16.458;2022-12-11T05:43:59;17.90;;;6.87;;
69310;SDS011;56430;48.154;16.458;2022-12-11T05:46:27;13.98;;;5.32;;
69310;SDS011;56430;48.154;16.458;2022-12-11T05:48:56;20.38;;;6.60;;
69310;SDS011;56430;48.154;16.458;2022-12-11T05:51:24;18.25;;;5.97;;
69310;SDS011;56430;48.154;16.458;2022-12-11T05:53:53;18.77;;;7.07;;
69310;SDS011;56430;48.154;16.458;2022-12-11T05:56:21;16.37;;;6.27;;
69310;SDS011;56430;48.154;16.458;2022-12-11T05:58:51;17.35;;;5.93;;
69310;SDS011;56430;48.154;16.458;2022-12-11T06:01:20;17.65;;;5.80;;
69310;SDS011;56430;48.154;16.458;2022-12-11T06:03:48;18.17;;;6.65;;
69310;SDS011;56430;48.154;16.458;2022-12-11T06:06:16;16.50;;;5.90;;
69310;SDS011;56430;48.154;16.458;2022-12-11T06:08:43;17.70;;;7.73;;
69310;SDS011;56430;48.154;16.458;2022-12-11T06:11:10;18.80;;;6.10;;
69310;SDS011;56430;48.154;16.458;2022-12-11T06:13:38;18.70;;;6.82;;
69310;SDS011;56430;48.154;16.458;2022-12-11T06:16:08;19.98;;;6.95;;
69310;SDS011;56430;48.154;16.458;2022-12-11T06:18:37;14.90;;;5.50;;
69310;SDS011;56430;48.154;16.458;2022-12-11T06:21:12;13.33;;;5.07;;
69310;SDS011;56430;48.154;16.458;2022-12-11T06:23:40;17.23;;;6.75;;
69310;SDS011;56430;48.154;16.458;2022-12-11T06:26:10;19.00;;;6.60;;
69310;SDS011;56430;48.154;16.458;2022-12-11T06:28:37;16.23;;;6.00;;
69310;SDS011;56430;48.154;16.458;2022-12-11T06:31:04;17.33;;;6.03;;
69310;SDS011;56430;48.154;16.458;2022-12-11T06:33:32;17.70;;;7.30;;
69310;SDS011;56430;48.154;16.458;2022-12-11T06:36:01;15.95;;;6.32;;
69310;SDS011;56430;48.154;16.458;2022-12-11T06:38:29;13.40;;;5.40;;
69310;SDS011;56430;48.154;16.458;2022-12-11T06:40:56;14.00;;;5.45;;
69310;SDS011;56430;48.154;16.458;2022-12-11T06:43:24;18.33;;;5.65;;
69310;SDS011;56430;48.154;16.458;2022-12-11T06:45:51;13.67;;;5.30;;
69310;SDS011;56430;48.154;16.458;2022-12-11T06:48:19;14.82;;;5.47;;
69310;SDS011;56430;48.154;16.458;2022-12-11T06:50:46;11.80;;;4.85;;
69310;SDS011;56430;48.154;16.458;2022-12-11T06:53:15;14.40;;;5.40;;
69310;SDS011;56430;48.154;16.458;2022-12-11T06:55:42;15.80;;;5.68;;
69310;SDS011;56430;48.154;16.458;2022-12-11T06:58:09;11.60;;;4.57;;
69310;SDS011;56430;48.154;16.458;2022-12-11T07:00:37;9.98;;;4.05;;
69310;SDS011;56430;48.154;16.458;2022-12-11T07:03:04;17.80;;;4.72;;
69310;SDS011;56430;48.154;16.458;2022-12-11T07:05:32;14.00;;;5.07;;
69310;SDS011;56430;48.154;16.458;2022-12-11T07:08:00;15.10;;;5.60;;
69310;SDS011;56430;48.154;16.458;2022-12-11T07:10:28;11.37;;;4.47;;
69310;SDS011;56430;48.154;16.458;2022-12-11T07:12:55;13.02;;;5.18;;
69310;SDS011;56430;48.154;16.458;2022-12-11T07:15:23;9.23;;;3.72;;
69310;SDS011;56430;48.154;16.458;2022-12-11T07:17:53;12.98;;;5.20;;
69310;SDS011;56430;48.154;16.458;2022-12-11T07:20:20;12.57;;;4.45;;
69310;SDS011;56430;48.154;16.458;2022-12-11T07:22:47;11.53;;;5.07;;
69310;SDS011;56430;48.154;16.458;2022-12-11T07:25:15;14.05;;;5.30;;
69310;SDS011;56430;48.154;16.458;2022-12-11T07:27:43;10.75;;;4.15;;
69310;SDS011;56430;48.154;16.458;2022-12-11T07:30:11;8.77;;;3.60;;
69310;SDS011;56430;48.154;16.458;2022-12-11T07:32:40;12.18;;;5.07;;
69310;SDS011;56430;48.154;16.458;2022-12-11T07:35:07;10.97;;;4.43;;
69310;SDS011;56430;48.154;16.458;2022-12-11T07:37:35;25.75;;;7.47;;
69310;SDS011;56430;48.154;16.458;2022-12-11T07:40:03;19.67;;;6.43;;
69310;SDS011;56430;48.154;16.458;2022-12-11T07:42:30;12.63;;;4.63;;
69310;SDS011;56430;48.154;16.458;2022-12-11T07:44:59;16.15;;;5.40;;
69310;SDS011;56430;48.154;16.458;2022-12-11T07:47:26;8.83;;;3.93;;
69310;SDS011;56430;48.154;16.458;2022-12-11T07:49:53;10.05;;;3.55;;
69310;SDS011;56430;48.154;16.458;2022-12-11T07:52:21;11.18;;;4.07;;
69310;SDS011;56430;48.154;16.458;2022-12-11T07:54:48;12.65;;;4.25;;
69310;SDS011;56430;48.154;16.458;2022-12-11T07:57:15;10.98;;;4.88;;
69310;SDS011;56430;48.154;16.458;2022-12-11T07:59:42;11.13;;;5.03;;
69310;SDS011;56430;48.154;16.458;2022-12-11T08:02:11;13.48;;;5.15;;
69310;SDS011;56430;48.154;16.458;2022-12-11T08:04:38;14.20;;;5.43;;
69310;SDS011;56430;48.154;16.458;2022-12-11T08:07:05;11.63;;;4.40;;
69310;SDS011;56430;48.154;16.458;2022-12-11T08:09:32;13.57;;;5.38;;
69310;SDS011;56430;48.154;16.458;2022-12-11T08:12:00;8.03;;;3.23;;
69310;SDS011;56430;48.154;16.458;2022-12-11T08:14:27;9.88;;;3.50;;
69310;SDS011;56430;48.154;16.458;2022-12-11T08:16:54;14.25;;;5.47;;
69310;SDS011;56430;48.154;16.458;2022-12-11T08:19:23;11.43;;;3.63;;
69310;SDS011;56430;48.154;16.458;2022-12-11T08:21:51;13.68;;;4.97;;
69310;SDS011;56430;48.154;16.458;2022-12-11T08:24:18;12.40;;;4.83;;
69310;SDS011;56430;48.154;16.458;2022-12-11T08:26:46;8.70;;;3.90;;
69310;SDS011;56430;48.154;16.458;2022-12-11T08:29:13;11.40;;;4.47;;
69310;SDS011;56430;48.154;16.458;2022-12-11T08:31:41;9.65;;;4.65;;
69310;SDS011;56430;48.154;16.458;2022-12-11T08:34:08;10.07;;;4.28;;
69310;SDS011;56430;48.154;16.458;2022-12-11T08:36:39;9.00;;;3.43;;
69310;SDS011;56430;48.154;16.458;2022-12-11T08:39:07;13.52;;;4.28;;
69310;SDS011;56430;48.154;16.458;2022-12-11T08:41:34;12.73;;;4.85;;
69310;SDS011;56430;48.154;16.458;2022-12-11T08:44:01;12.68;;;5.13;;
69310;SDS011;56430;48.154;16.458;2022-12-11T08:46:30;10.45;;;4.13;;
69310;SDS011;56430;48.154;16.458;2022-12-11T08:48:58;8.87;;;3.57;;
69310;SDS011;56430;48.154;16.458;2022-12-11T08:51:26;12.43;;;4.43;;
69310;SDS011;56430;48.154;16.458;2022-12-11T08:53:55;10.48;;;4.18;;
69310;SDS011;56430;48.154;16.458;2022-12-11T08:56:23;9.60;;;4.53;;
69310;SDS011;56430;48.154;16.458;2022-12-11T08:58:51;9.27;;;3.90;;
69310;SDS011;56430;48.154;16.458;2022-12-11T09:01:19;11.03;;;4.57;;
69310;SDS011;56430;48.154;16.458;2022-12-11T09:03:47;11.23;;;4.25;;
69310;SDS011;56430;48.154;16.458;2022-12-11T09:06:15;10.63;;;4.35;;
69310;SDS011;56430;48.154;16.458;2022-12-11T09:08:45;8.93;;;3.85;;
69310;SDS011;56430;48.154;16.458;2022-12-11T09:11:14;8.73;;;4.10;;
69310;SDS011;56430;48.154;16.458;2022-12-11T09:13:42;8.70;;;3.80;;
69310;SDS011;56430;48.154;16.458;2022-12-11T09:16:11;9.07;;;3.90;;
69310;SDS011;56430;48.154;16.458;2022-12-11T09:18:39;8.60;;;4.18;;
69310;SDS011;56430;48.154;16.458;2022-12-11T09:21:08;8.32;;;3.70;;
69310;SDS011;56430;48.154;16.458;2022-12-11T09:23:38;7.65;;;3.78;;
69310;SDS011;56430;48.154;16.458;2022-12-11T09:26:05;9.40;;;4.10;;
69310;SDS011;56430;48.154;16.458;2022-12-11T09:28:34;7.00;;;3.42;;
69310;SDS011;56430;48.154;16.458;2022-12-11T09:31:06;6.72;;;3.22;;
69310;SDS011;56430;48.154;16.458;2022-12-11T09:33:34;7.25;;;3.22;;
69310;SDS011;56430;48.154;16.458;2022-12-11T09:36:02;7.38;;;3.42;;
69310;SDS011;56430;48.154;16.458;2022-12-11T09:38:30;6.33;;;3.27;;
69310;SDS011;56430;48.154;16.458;2022-12-11T09:40:58;7.45;;;3.72;;
69310;SDS011;56430;48.154;16.458;2022-12-11T09:43:35;6.95;;;3.08;;
69310;SDS011;56430;48.154;16.458;2022-12-11T09:46:04;7.95;;;3.70;;
69310;SDS011;56430;48.154;16.458;2022-12-11T09:48:35;7.03;;;3.40;;
69310;SDS011;56430;48.154;16.458;2022-12-11T09:51:04;7.87;;;3.30;;
69310;SDS011;56430;48.154;16.458;2022-12-11T09:53:36;9.35;;;3.85;;
69310;SDS011;56430;48.154;16.458;2022-12-11T09:56:05;7.82;;;3.17;;
69310;SDS011;56430;48.154;16.458;2022-12-11T09:58:42;7.57;;;3.70;;
69310;SDS011;56430;48.154;16.458;2022-12-11T10:01:16;10.27;;;3.85;;
69310;SDS011;56430;48.154;16.458;2022-12-11T10:03:55;6.43;;;3.10;;
69310;SDS011;56430;48.154;16.458;2022-12-11T10:06:32;7.90;;;2.78;;
69310;SDS011;56430;48.154;16.458;2022-12-11T10:09:06;7.68;;;2.97;;
69310;SDS011;56430;48.154;16.458;2022-12-11T10:11:44;5.03;;;2.33;;
69310;SDS011;56430;48.154;16.458;2022-12-11T10:14:21;7.45;;;3.22;;
69310;SDS011;56430;48.154;16.458;2022-12-11T10:16:55;6.60;;;2.80;;
69310;SDS011;56430;48.154;16.458;2022-12-11T10:19:25;6.93;;;2.97;;
69310;SDS011;56430;48.154;16.458;2022-12-11T10:21:54;7.70;;;3.03;;
69310;SDS011;56430;48.154;16.458;2022-12-11T10:24:24;8.43;;;2.72;;
69310;SDS011;56430;48.154;16.458;2022-12-11T10:26:57;7.22;;;2.92;;
69310;SDS011;56430;48.154;16.458;2022-12-11T10:29:26;8.30;;;3.10;;
69310;SDS011;56430;48.154;16.458;2022-12-11T10:31:55;6.13;;;2.67;;
69310;SDS011;56430;48.154;16.458;2022-12-11T10:34:25;6.30;;;2.70;;
69310;SDS011;56430;48.154;16.458;2022-12-11T10:36:56;6.05;;;2.80;;
69310;SDS011;56430;48.154;16.458;2022-12-11T10:39:23;7.35;;;2.92;;
69310;SDS011;56430;48.154;16.458;2022-12-11T10:41:50;7.13;;;3.20;;
69310;SDS011;56430;48.154;16.458;2022-12-11T10:44:21;6.05;;;3.08;;
69310;SDS011;56430;48.154;16.458;2022-12-11T10:47:02;7.20;;;2.95;;
69310;SDS011;56430;48.154;16.458;2022-12-11T10:49:31;6.88;;;2.92;;
69310;SDS011;56430;48.154;16.458;2022-12-11T10:51:59;7.20;;;3.42;;
69310;SDS011;56430;48.154;16.458;2022-12-11T10:54:31;7.50;;;3.07;;
69310;SDS011;56430;48.154;16.458;2022-12-11T10:57:00;6.22;;;2.88;;
69310;SDS011;56430;48.154;16.458;2022-12-11T10:59:30;5.68;;;2.20;;
69310;SDS011;56430;48.154;16.458;2022-12-11T11:02:01;5.47;;;2.38;;
69310;SDS011;56430;48.154;16.458;2022-12-11T11:04:30;6.45;;;2.72;;
69310;SDS011;56430;48.154;16.458;2022-12-11T11:07:01;6.13;;;2.70;;
69310;SDS011;56430;48.154;16.458;2022-12-11T11:09:32;7.03;;;3.00;;
69310;SDS011;56430;48.154;16.458;2022-12-11T11:12:00;8.10;;;3.03;;
69310;SDS011;56430;48.154;16.458;2022-12-11T11:14:30;6.50;;;2.85;;
69310;SDS011;56430;48.154;16.458;2022-12-11T11:16:58;6.72;;;2.63;;
69310;SDS011;56430;48.154;16.458;2022-12-11T11:19:29;6.40;;;2.70;;
69310;SDS011;56430;48.154;16.458;2022-12-11T11:21:59;5.68;;;2.75;;
69310;SDS011;56430;48.154;16.458;2022-12-11T11:24:29;7.18;;;3.33;;
69310;SDS011;56430;48.154;16.458;2022-12-11T11:26:59;7.88;;;3.83;;
69310;SDS011;56430;48.154;16.458;2022-12-11T11:29:28;8.32;;;3.30;;
69310;SDS011;56430;48.154;16.458;2022-12-11T11:31:59;7.23;;;3.30;;
69310;SDS011;56430;48.154;16.458;2022-12-11T11:34:40;10.77;;;3.47;;
69310;SDS011;56430;48.154;16.458;2022-12-11T11:37:14;7.18;;;2.55;;
69310;SDS011;56430;48.154;16.458;2022-12-11T11:39:49;6.10;;;3.03;;
69310;SDS011;56430;48.154;16.458;2022-12-11T11:42:19;8.07;;;2.90;;
69310;SDS011;56430;48.154;16.458;2022-12-11T11:44:58;6.93;;;2.73;;
69310;SDS011;56430;48.154;16.458;2022-12-11T11:47:31;6.85;;;2.63;;
69310;SDS011;56430;48.154;16.458;2022-12-11T11:50:03;7.00;;;2.92;;
69310;SDS011;56430;48.154;16.458;2022-12-11T11:52:33;6.75;;;3.15;;
69310;SDS011;56430;48.154;16.458;2022-12-11T11:55:06;11.35;;;2.83;;
69310;SDS011;56430;48.154;16.458;2022-12-11T11:57:36;6.83;;;2.37;;
69310;SDS011;56430;48.154;16.458;2022-12-11T12:00:13;6.65;;;2.47;;
69310;SDS011;56430;48.154;16.458;2022-12-11T12:02:46;8.82;;;3.10;;
69310;SDS011;56430;48.154;16.458;2022-12-11T12:05:16;9.73;;;2.83;;
69310;SDS011;56430;48.154;16.458;2022-12-11T12:07:50;8.13;;;2.83;;
69310;SDS011;56430;48.154;16.458;2022-12-11T12:10:29;8.47;;;2.57;;
69310;SDS011;56430;48.154;16.458;2022-12-11T12:13:02;7.78;;;3.15;;
69310;SDS011;56430;48.154;16.458;2022-12-11T12:15:34;7.65;;;2.15;;
69310;SDS011;56430;48.154;16.458;2022-12-11T12:18:10;5.53;;;2.38;;
69310;SDS011;56430;48.154;16.458;2022-12-11T12:20:42;6.45;;;2.47;;
69310;SDS011;56430;48.154;16.458;2022-12-11T12:26:16;6.82;;;2.15;;
69310;SDS011;56430;48.154;16.458;2022-12-11T12:28:51;5.25;;;1.80;;
69310;SDS011;56430;48.154;16.458;2022-12-11T12:31:39;5.28;;;2.05;;
69310;SDS011;56430;48.154;16.458;2022-12-11T12:34:15;6.68;;;2.33;;
69310;SDS011;56430;48.154;16.458;2022-12-11T12:36:50;6.27;;;2.00;;
69310;SDS011;56430;48.154;16.458;2022-12-11T12:39:26;6.60;;;1.92;;
69310;SDS011;56430;48.154;16.458;2022-12-11T12:42:04;5.38;;;2.33;;
69310;SDS011;56430;48.154;16.458;2022-12-11T12:44:39;7.60;;;2.72;;
69310;SDS011;56430;48.154;16.458;2022-12-11T12:47:09;7.50;;;2.25;;
69310;SDS011;56430;48.154;16.458;2022-12-11T12:49:41;8.57;;;2.40;;
69310;SDS011;56430;48.154;16.458;2022-12-11T12:52:11;6.40;;;2.33;;
69310;SDS011;56430;48.154;16.458;2022-12-11T12:54:41;7.07;;;2.55;;
69310;SDS011;56430;48.154;16.458;2022-12-11T12:57:31;7.20;;;2.65;;
69310;SDS011;56430;48.154;16.458;2022-12-11T12:59:58;7.32;;;2.95;;
69310;SDS011;56430;48.154;16.458;2022-12-11T13:02:26;11.47;;;3.23;;
69310;SDS011;56430;48.154;16.458;2022-12-11T13:04:58;7.53;;;2.70;;
69310;SDS011;56430;48.154;16.458;2022-12-11T13:07:29;8.75;;;3.13;;
69310;SDS011;56430;48.154;16.458;2022-12-11T13:09:58;9.20;;;2.88;;
69310;SDS011;56430;48.154;16.458;2022-12-11T13:12:32;6.45;;;1.88;;
69310;SDS011;56430;48.154;16.458;2022-12-11T13:15:24;7.77;;;2.67;;
69310;SDS011;56430;48.154;16.458;2022-12-11T13:18:28;7.25;;;3.05;;
69310;SDS011;56430;48.154;16.458;2022-12-11T13:20:59;5.25;;;2.17;;
69310;SDS011;56430;48.154;16.458;2022-12-11T13:23:27;9.00;;;3.08;;
69310;SDS011;56430;48.154;16.458;2022-12-11T13:25:56;7.43;;;2.60;;
69310;SDS011;56430;48.154;16.458;2022-12-11T13:28:29;7.07;;;2.30;;
69310;SDS011;56430;48.154;16.458;2022-12-11T13:30:59;7.47;;;3.00;;
69310;SDS011;56430;48.154;16.458;2022-12-11T13:33:32;7.22;;;2.70;;
69310;SDS011;56430;48.154;16.458;2022-12-11T13:36:17;7.70;;;3.17;;
69310;SDS011;56430;48.154;16.458;2022-12-11T13:38:51;7.30;;;2.65;;
69310;SDS011;56430;48.154;16.458;2022-12-11T13:41:20;8.40;;;3.13;;
69310;SDS011;56430;48.154;16.458;2022-12-11T13:43:49;7.00;;;2.58;;
69310;SDS011;56430;48.154;16.458;2022-12-11T13:46:18;8.25;;;3.38;;
69310;SDS011;56430;48.154;16.458;2022-12-11T13:48:51;7.90;;;2.80;;
69310;SDS011;56430;48.154;16.458;2022-12-11T13:51:26;6.57;;;2.55;;
69310;SDS011;56430;48.154;16.458;2022-12-11T13:54:01;8.50;;;3.07;;
69310;SDS011;56430;48.154;16.458;2022-12-11T13:56:30;7.45;;;2.65;;
69310;SDS011;56430;48.154;16.458;2022-12-11T13:58:58;7.82;;;2.75;;
69310;SDS011;56430;48.154;16.458;2022-12-11T14:01:26;8.43;;;3.13;;
69310;SDS011;56430;48.154;16.458;2022-12-11T14:03:59;8.50;;;2.97;;
69310;SDS011;56430;48.154;16.458;2022-12-11T14:06:29;10.43;;;3.23;;
69310;SDS011;56430;48.154;16.458;2022-12-11T14:08:57;7.65;;;2.70;;
69310;SDS011;56430;48.154;16.458;2022-12-11T14:11:30;8.15;;;2.70;;
69310;SDS011;56430;48.154;16.458;2022-12-11T14:14:02;8.23;;;2.75;;
69310;SDS011;56430;48.154;16.458;2022-12-11T14:16:31;7.50;;;2.95;;
69310;SDS011;56430;48.154;16.458;2022-12-11T14:19:00;7.23;;;2.73;;
69310;SDS011;56430;48.154;16.458;2022-12-11T14:21:31;5.40;;;1.92;;
69310;SDS011;56430;48.154;16.458;2022-12-11T14:23:59;6.13;;;1.80;;
69310;SDS011;56430;48.154;16.458;2022-12-11T14:26:29;9.82;;;2.47;;
69310;SDS011;56430;48.154;16.458;2022-12-11T14:28:57;7.05;;;2.30;;
69310;SDS011;56430;48.154;16.458;2022-12-11T14:31:28;9.70;;;2.73;;
69310;SDS011;56430;48.154;16.458;2022-12-11T14:34:00;6.30;;;1.83;;
69310;SDS011;56430;48.154;16.458;2022-12-11T14:36:28;8.65;;;2.70;;
69310;SDS011;56430;48.154;16.458;2022-12-11T14:39:01;8.98;;;3.15;;
69310;SDS011;56430;48.154;16.458;2022-12-11T14:41:33;7.50;;;2.35;;
69310;SDS011;56430;48.154;16.458;2022-12-11T14:44:05;6.93;;;2.60;;
69310;SDS011;56430;48.154;16.458;2022-12-11T14:46:35;6.10;;;2.20;;
69310;SDS011;56430;48.154;16.458;2022-12-11T14:49:06;7.30;;;2.50;;
69310;SDS011;56430;48.154;16.458;2022-12-11T14:51:37;6.53;;;2.08;;